Badan Meteorologi, Klimatologi, dan Geofisika

CUACA TERKINI BANDARA KUALANAMU

Minggu, 12 Juli 2020 08:07 UTC

Cuaca : Cerah - berawan

Angin : (dari) Utara, 16.7 km/jam

Jarak Pandang : >=10 km

Suhu : 30 °C

Waktu Pengamatan : 15:00 WIB

Selengkapnya>>>

DATA METEOROLOGI KUALANAMU

Data Metar Terbaru

WIMM 120800Z 01009KT 330V040 9999 FEW017 30/25 Q1006 NOSIG=

WIMM 120730Z 01006KT 330V050 9999 FEW017 31/25 Q1006 NOSIG=

WIMM 120700Z 02005KT 320V050 9999 FEW017 31/24 Q1006 NOSIG=

WIMM 120630Z 02007KT 350V050 9999 FEW017 30/25 Q1007 NOSIG=

WIMM 120600Z 01006KT 330V060 9999 FEW017 31/25 Q1007 NOSIG=

WIMM 120530Z 05007KT 340V120 9999 FEW017 31/25 Q1007 NOSIG=

TAF WIMM 120500Z 1206/1306 08010KT 9999 SCT018 BECMG 1210/1212 VRB03KT 3000 BR =

Selengkapnya>>>

Data TAF Terbaru

TAF WIMM 120500Z 1206/1306 08010KT 9999 SCT018 BECMG 1210/1212 VRB03KT 3000 BR =

Selengkapnya>>>

CITRA SATELIT

Enhanced
Citra Satelit
Cloud Type
Citra Satelit IR
Hotspot
Citra Satelit
Sebaran Asap
Citra Satelit